createdAt,value
2018-05-24T00:00:18.981Z,12.70
2018-05-24T00:03:16.825Z,12.70
2018-05-24T00:06:14.786Z,12.50
2018-05-24T00:09:12.731Z,12.60
2018-05-24T00:12:09.892Z,12.50
2018-05-24T00:15:07.716Z,12.30
2018-05-24T00:18:05.386Z,12.30
2018-05-24T00:21:03.400Z,12.20
2018-05-24T00:24:01.057Z,12.20
2018-05-24T00:26:58.998Z,12.10
2018-05-24T00:29:56.831Z,12.00
2018-05-24T00:32:54.640Z,11.90
2018-05-24T00:35:52.474Z,12.00
2018-05-24T00:38:50.262Z,12.10
2018-05-24T00:41:48.043Z,12.00
2018-05-24T00:44:45.669Z,12.00
2018-05-24T00:47:43.419Z,11.90
2018-05-24T00:50:41.321Z,11.90
2018-05-24T00:53:39.204Z,11.90
2018-05-24T00:56:36.907Z,11.80
2018-05-24T00:59:42.996Z,11.80
2018-05-24T01:02:40.935Z,11.70
2018-05-24T01:05:39.038Z,11.60
2018-05-24T01:08:36.969Z,11.70
2018-05-24T01:11:34.093Z,11.80
2018-05-24T01:14:32.012Z,11.70
2018-05-24T01:17:29.782Z,11.70
2018-05-24T01:20:27.489Z,11.40
2018-05-24T01:23:25.197Z,11.50
2018-05-24T01:26:23.042Z,11.30
2018-05-24T01:29:21.166Z,11.40
2018-05-24T01:32:19.015Z,11.40
2018-05-24T01:35:16.885Z,11.20
2018-05-24T01:38:14.639Z,11.00
2018-05-24T01:41:12.471Z,11.10
2018-05-24T01:44:10.226Z,11.10
2018-05-24T01:47:07.950Z,11.00
2018-05-24T01:50:05.920Z,10.90
2018-05-24T01:53:04.265Z,10.90
2018-05-24T01:56:02.672Z,11.00
2018-05-24T01:59:00.791Z,10.90
2018-05-24T02:01:58.562Z,10.90
2018-05-24T02:04:56.199Z,10.80
2018-05-24T02:07:53.192Z,10.80
2018-05-24T02:10:50.524Z,10.80
2018-05-24T02:13:49.003Z,10.70
2018-05-24T02:16:47.043Z,10.60
2018-05-24T02:19:44.883Z,10.70
2018-05-24T02:22:42.786Z,10.70
2018-05-24T02:25:40.730Z,10.80
2018-05-24T02:28:38.657Z,10.70
2018-05-24T02:31:36.938Z,10.70
2018-05-24T02:34:35.538Z,10.60
2018-05-24T02:37:34.335Z,10.60
2018-05-24T02:40:31.664Z,10.50
2018-05-24T02:43:28.729Z,10.50
2018-05-24T02:46:26.754Z,10.60
2018-05-24T02:49:23.936Z,10.60
2018-05-24T02:52:21.910Z,10.50
2018-05-24T02:55:19.824Z,10.50
2018-05-24T02:58:17.629Z,10.50
2018-05-24T03:01:15.466Z,10.60
2018-05-24T03:04:13.341Z,10.50
2018-05-24T03:07:10.990Z,10.60
2018-05-24T03:10:08.671Z,10.50
2018-05-24T03:13:06.500Z,10.50
2018-05-24T03:16:04.097Z,10.60
2018-05-24T03:19:01.975Z,10.70
2018-05-24T03:21:59.109Z,10.70
2018-05-24T03:24:56.251Z,10.60
2018-05-24T03:27:53.590Z,10.70
2018-05-24T03:30:51.569Z,10.80
2018-05-24T03:33:49.192Z,10.70
2018-05-24T03:36:47.089Z,10.70
2018-05-24T03:39:44.940Z,10.60
2018-05-24T03:42:42.803Z,10.60
2018-05-24T03:45:40.702Z,10.60
2018-05-24T03:48:37.986Z,10.70
2018-05-24T03:51:35.823Z,10.70
2018-05-24T03:54:33.125Z,10.70
2018-05-24T03:57:30.364Z,10.60
2018-05-24T04:00:40.526Z,10.70
2018-05-24T04:04:02.750Z,10.70
2018-05-24T04:07:00.030Z,10.60
2018-05-24T04:09:58.101Z,10.90
2018-05-24T04:12:55.921Z,10.90
2018-05-24T04:15:53.192Z,10.90
2018-05-24T04:18:50.276Z,11.10
2018-05-24T04:21:47.293Z,11.10
2018-05-24T04:24:45.084Z,11.00
2018-05-24T04:27:42.978Z,11.00
2018-05-24T04:30:40.786Z,10.90
2018-05-24T04:33:37.881Z,10.90
2018-05-24T04:36:34.995Z,10.90
2018-05-24T04:39:32.829Z,11.00
2018-05-24T04:42:30.787Z,11.40
2018-05-24T04:45:28.431Z,11.40
2018-05-24T04:48:26.449Z,11.50
2018-05-24T04:51:25.092Z,11.40
2018-05-24T04:54:22.209Z,11.40
2018-05-24T04:57:20.045Z,11.30
2018-05-24T05:00:18.166Z,11.40
2018-05-24T05:03:15.233Z,11.50
2018-05-24T05:06:13.178Z,11.60
2018-05-24T05:09:11.154Z,11.70
2018-05-24T05:12:09.002Z,11.80
2018-05-24T05:15:06.723Z,11.90
2018-05-24T05:18:04.609Z,11.90
2018-05-24T05:21:02.326Z,12.10
2018-05-24T05:23:59.382Z,12.20
2018-05-24T05:26:57.278Z,12.30
2018-05-24T05:29:55.241Z,12.40
2018-05-24T05:32:52.495Z,12.60
2018-05-24T05:35:50.162Z,12.60
2018-05-24T05:38:47.223Z,12.70
2018-05-24T05:41:45.041Z,12.90
2018-05-24T05:44:43.884Z,13.10
2018-05-24T05:47:41.057Z,13.10
2018-05-24T05:50:39.947Z,13.30
2018-05-24T05:53:37.801Z,13.40
2018-05-24T05:56:35.508Z,13.50
2018-05-24T05:59:33.913Z,13.60
2018-05-24T06:02:31.390Z,13.60
2018-05-24T06:05:28.785Z,13.80
2018-05-24T06:08:25.947Z,14.10
2018-05-24T06:11:24.011Z,14.30
2018-05-24T06:14:21.155Z,14.50
2018-05-24T06:17:18.831Z,14.70
2018-05-24T06:20:16.535Z,14.80
2018-05-24T06:23:14.532Z,15.00
2018-05-24T06:26:12.707Z,15.40
2018-05-24T06:29:10.509Z,15.60
2018-05-24T06:32:08.400Z,15.60
2018-05-24T06:35:06.462Z,15.60
2018-05-24T06:38:03.721Z,15.90
2018-05-24T06:41:01.684Z,15.90
2018-05-24T06:43:59.538Z,16.10
2018-05-24T06:46:57.533Z,15.90
2018-05-24T06:49:55.392Z,16.30
2018-05-24T06:52:53.305Z,17.90
2018-05-24T06:55:51.216Z,19.40
2018-05-24T06:58:50.888Z,19.90
2018-05-24T07:01:49.713Z,20.20
2018-05-24T07:04:47.631Z,20.30
2018-05-24T07:07:45.372Z,20.30
2018-05-24T07:10:42.493Z,19.10
2018-05-24T07:13:40.104Z,20.10
2018-05-24T07:16:38.094Z,20.10
2018-05-24T07:19:36.119Z,20.20
2018-05-24T07:22:33.976Z,21.20
2018-05-24T07:25:32.070Z,20.70
2018-05-24T07:28:30.128Z,22.20
2018-05-24T07:31:27.360Z,22.10
2018-05-24T07:34:24.359Z,22.40
2018-05-24T07:37:22.499Z,22.50
2018-05-24T07:40:20.381Z,22.50
2018-05-24T07:43:18.747Z,23.10
2018-05-24T07:46:16.752Z,23.70
2018-05-24T07:49:14.581Z,23.50
2018-05-24T07:52:11.659Z,23.60
2018-05-24T07:55:09.703Z,23.10
2018-05-24T07:58:07.624Z,23.30
2018-05-24T08:01:05.473Z,23.20
2018-05-24T08:04:03.259Z,23.80
2018-05-24T08:07:01.824Z,24.00
2018-05-24T08:09:58.818Z,24.00
2018-05-24T08:12:56.863Z,23.60
2018-05-24T08:15:54.712Z,23.60
2018-05-24T08:18:52.443Z,23.20
2018-05-24T08:21:50.620Z,22.60
2018-05-24T08:24:48.392Z,23.10
2018-05-24T08:27:46.381Z,22.90
2018-05-24T08:30:45.228Z,23.10
2018-05-24T08:33:42.910Z,22.90
2018-05-24T08:36:40.854Z,22.90
2018-05-24T08:39:38.665Z,22.90
2018-05-24T08:42:35.759Z,24.00
2018-05-24T08:45:33.812Z,24.00
2018-05-24T08:48:31.848Z,24.00
2018-05-24T08:51:29.789Z,24.70
2018-05-24T08:54:27.573Z,24.70
2018-05-24T08:57:25.489Z,24.00
2018-05-24T09:00:23.211Z,23.90
2018-05-24T09:03:22.459Z,24.10
2018-05-24T09:06:19.628Z,24.10
2018-05-24T09:09:17.006Z,24.80
2018-05-24T09:12:15.011Z,25.30
2018-05-24T09:15:13.055Z,25.90
2018-05-24T09:18:12.565Z,25.90
2018-05-24T09:21:10.771Z,25.70
2018-05-24T09:24:09.568Z,24.90
2018-05-24T09:27:07.364Z,25.20
2018-05-24T09:30:05.359Z,25.20
2018-05-24T09:33:03.173Z,25.70
2018-05-24T09:36:01.170Z,25.30
2018-05-24T09:38:58.946Z,25.30
2018-05-24T09:41:56.268Z,25.00
2018-05-24T09:44:54.228Z,24.80
2018-05-24T09:47:52.491Z,25.40
2018-05-24T09:50:50.201Z,25.20
2018-05-24T09:53:47.942Z,25.30
2018-05-24T09:56:45.976Z,25.50
2018-05-24T09:59:43.811Z,26.00
2018-05-24T10:02:41.995Z,25.50
2018-05-24T10:05:40.573Z,26.00
2018-05-24T10:08:38.750Z,26.20
2018-05-24T10:11:35.887Z,26.20
2018-05-24T10:14:33.848Z,26.90
2018-05-24T10:17:31.537Z,26.10
2018-05-24T10:20:29.555Z,26.30
2018-05-24T10:23:27.160Z,28.00
2018-05-24T10:26:24.296Z,27.20
2018-05-24T10:29:21.427Z,26.80
2018-05-24T10:32:19.192Z,26.20
2018-05-24T10:35:16.372Z,25.40
2018-05-24T10:38:13.340Z,25.60
2018-05-24T10:41:10.870Z,26.50
2018-05-24T10:44:08.701Z,26.60
2018-05-24T10:47:06.905Z,26.40
2018-05-24T10:50:04.641Z,26.40
2018-05-24T10:53:02.424Z,26.60
2018-05-24T10:55:59.528Z,26.60
2018-05-24T10:58:56.717Z,27.20
2018-05-24T11:01:54.704Z,26.50
2018-05-24T11:04:52.645Z,25.90
2018-05-24T11:07:49.907Z,26.20
2018-05-24T11:10:46.880Z,26.80
2018-05-24T11:13:44.701Z,26.40
2018-05-24T11:16:42.602Z,26.60
2018-05-24T11:19:40.269Z,25.80
2018-05-24T11:22:38.220Z,25.30
2018-05-24T11:25:36.138Z,26.20
2018-05-24T11:28:34.178Z,26.20
2018-05-24T11:31:31.964Z,27.20
2018-05-24T11:34:29.755Z,27.40
2018-05-24T11:37:26.776Z,27.80
2018-05-24T11:40:24.731Z,27.50
2018-05-24T11:43:21.924Z,27.80
2018-05-24T11:46:19.929Z,27.50
2018-05-24T11:49:17.756Z,27.40
2018-05-24T11:52:14.914Z,27.20
2018-05-24T11:55:12.004Z,26.90
2018-05-24T11:58:09.041Z,27.60
2018-05-24T12:01:06.871Z,27.20
2018-05-24T12:04:04.813Z,27.50
2018-05-24T12:07:02.817Z,27.50
2018-05-24T12:09:59.822Z,27.20
2018-05-24T12:12:56.897Z,27.10
2018-05-24T12:15:54.801Z,27.10
2018-05-24T12:18:52.767Z,26.50
2018-05-24T12:21:50.652Z,26.50
2018-05-24T12:24:48.410Z,26.50
2018-05-24T12:27:46.592Z,27.60
2018-05-24T12:30:43.816Z,27.60
2018-05-24T12:33:41.079Z,27.30
2018-05-24T12:36:38.040Z,27.00
2018-05-24T12:39:36.741Z,26.90
2018-05-24T12:42:34.737Z,26.80
2018-05-24T12:45:33.583Z,27.30
2018-05-24T12:48:31.984Z,27.70
2018-05-24T12:51:29.547Z,27.40
2018-05-24T12:54:27.474Z,27.50
2018-05-24T12:57:24.709Z,27.30
2018-05-24T13:00:22.605Z,27.70
2018-05-24T13:03:20.579Z,27.80
2018-05-24T13:06:18.635Z,28.60
2018-05-24T13:09:17.093Z,28.10
2018-05-24T13:12:14.232Z,28.10
2018-05-24T13:15:11.400Z,27.80
2018-05-24T13:18:09.174Z,27.70
2018-05-24T13:21:06.166Z,26.30
2018-05-24T13:24:03.197Z,27.00
2018-05-24T13:27:01.320Z,26.70
2018-05-24T13:29:59.073Z,26.60
2018-05-24T13:32:56.209Z,26.20
2018-05-24T13:35:54.127Z,26.40
2018-05-24T13:38:51.916Z,26.30
2018-05-24T13:41:49.509Z,27.20
2018-05-24T13:44:47.561Z,26.60
2018-05-24T13:47:46.428Z,26.60
2018-05-24T13:50:44.220Z,26.10
2018-05-24T13:53:42.024Z,26.80
2018-05-24T13:56:40.825Z,26.70
2018-05-24T13:59:38.638Z,27.00
2018-05-24T14:02:36.581Z,26.90
2018-05-24T14:05:34.365Z,27.30
2018-05-24T14:08:32.148Z,27.40
2018-05-24T14:11:29.933Z,26.70
2018-05-24T14:14:28.070Z,26.20
2018-05-24T14:17:26.852Z,26.20
2018-05-24T14:20:23.875Z,26.10
2018-05-24T14:23:22.311Z,26.50
2018-05-24T14:26:19.795Z,26.50
2018-05-24T14:29:17.475Z,26.40
2018-05-24T14:32:15.015Z,26.40
2018-05-24T14:35:12.890Z,26.20
2018-05-24T14:38:10.536Z,26.50
2018-05-24T14:41:07.552Z,26.10
2018-05-24T14:44:05.675Z,25.90
2018-05-24T14:47:03.407Z,25.90
2018-05-24T14:50:02.010Z,25.70
2018-05-24T14:52:59.212Z,25.50
2018-05-24T14:55:56.281Z,25.70
2018-05-24T14:58:54.083Z,25.80
2018-05-24T15:01:52.007Z,25.80
2018-05-24T15:04:49.931Z,25.90
2018-05-24T15:07:47.072Z,25.80
2018-05-24T15:10:44.991Z,26.00
2018-05-24T15:13:55.026Z,25.90
2018-05-24T15:16:53.007Z,25.50
2018-05-24T15:19:51.683Z,25.50
2018-05-24T15:22:49.055Z,25.30
2018-05-24T15:25:47.129Z,25.30
2018-05-24T15:28:45.066Z,25.30
2018-05-24T15:31:43.182Z,25.60
2018-05-24T15:34:40.595Z,25.70
2018-05-24T15:37:38.613Z,25.50
2018-05-24T15:40:36.429Z,24.80
2018-05-24T15:43:34.457Z,24.40
2018-05-24T15:46:32.682Z,24.30
2018-05-24T15:49:31.555Z,24.10
2018-05-24T15:52:29.647Z,24.10
2018-05-24T15:55:27.855Z,24.10
2018-05-24T15:58:25.445Z,23.90
2018-05-24T16:01:22.490Z,23.90
2018-05-24T16:04:19.536Z,23.70
2018-05-24T16:07:18.424Z,23.60
2018-05-24T16:10:16.116Z,23.70
2018-05-24T16:13:14.596Z,23.60
2018-05-24T16:16:12.418Z,23.50
2018-05-24T16:19:10.301Z,24.00
2018-05-24T16:22:08.259Z,24.00
2018-05-24T16:25:05.930Z,24.00
2018-05-24T16:28:03.097Z,23.90
2018-05-24T16:31:02.099Z,23.80
2018-05-24T16:33:59.762Z,24.00
2018-05-24T16:36:57.758Z,23.90
2018-05-24T16:39:55.744Z,23.90
2018-05-24T16:42:52.814Z,24.00
2018-05-24T16:45:50.519Z,23.70
2018-05-24T16:48:48.332Z,23.40
2018-05-24T16:51:45.357Z,23.20
2018-05-24T16:54:43.300Z,23.30
2018-05-24T16:57:41.157Z,23.20
2018-05-24T17:00:39.105Z,23.00
2018-05-24T17:03:36.152Z,22.90
2018-05-24T17:06:33.202Z,23.00
2018-05-24T17:09:31.082Z,22.70
2018-05-24T17:12:28.214Z,22.60
2018-05-24T17:15:26.255Z,22.60
2018-05-24T17:18:23.448Z,22.60
2018-05-24T17:21:21.465Z,22.50
2018-05-24T17:24:19.290Z,22.40
2018-05-24T17:27:16.973Z,22.10
2018-05-24T17:30:14.888Z,21.90
2018-05-24T17:33:12.639Z,21.80
2018-05-24T17:36:11.660Z,21.50
2018-05-24T17:39:08.759Z,21.50
2018-05-24T17:42:05.853Z,21.40
2018-05-24T17:45:02.881Z,21.20
2018-05-24T17:47:59.974Z,21.00
2018-05-24T17:50:57.120Z,20.90
2018-05-24T17:53:55.043Z,20.80
2018-05-24T17:56:52.335Z,20.80
2018-05-24T17:59:49.509Z,20.70
2018-05-24T18:02:47.671Z,20.50
2018-05-24T18:05:45.508Z,20.40
2018-05-24T18:08:43.479Z,20.40
2018-05-24T18:11:40.720Z,20.30
2018-05-24T18:14:39.721Z,20.10
2018-05-24T18:17:37.680Z,19.90
2018-05-24T18:20:35.724Z,19.90
2018-05-24T18:23:33.713Z,19.80
2018-05-24T18:26:30.753Z,19.70
2018-05-24T18:29:27.789Z,19.70
2018-05-24T18:32:25.861Z,19.60
2018-05-24T18:35:23.032Z,19.60
2018-05-24T18:38:21.509Z,19.50
2018-05-24T18:41:19.948Z,19.30
2018-05-24T18:44:17.108Z,19.30
2018-05-24T18:47:15.105Z,19.20
2018-05-24T18:50:12.857Z,19.20
2018-05-24T18:53:10.978Z,19.20
2018-05-24T18:56:08.937Z,19.00
2018-05-24T18:59:06.891Z,19.00
2018-05-24T19:02:04.814Z,18.80
2018-05-24T19:05:02.605Z,18.80
2018-05-24T19:08:00.483Z,18.70
2018-05-24T19:10:58.444Z,18.60
2018-05-24T19:13:56.416Z,18.60
2018-05-24T19:16:54.266Z,18.60
2018-05-24T19:19:51.463Z,18.50
2018-05-24T19:22:49.377Z,18.40
2018-05-24T19:25:46.493Z,18.40
2018-05-24T19:28:45.487Z,18.40
2018-05-24T19:31:43.248Z,18.40
2018-05-24T19:34:40.507Z,18.20
2018-05-24T19:37:38.343Z,18.10
2018-05-24T19:40:36.300Z,18.10
2018-05-24T19:43:34.203Z,18.00
2018-05-24T19:46:33.294Z,17.90
2018-05-24T19:49:31.253Z,17.80
2018-05-24T19:52:29.221Z,17.70
2018-05-24T19:55:27.227Z,17.60
2018-05-24T19:58:24.336Z,17.60
2018-05-24T20:01:21.619Z,17.60
2018-05-24T20:04:18.925Z,17.50
2018-05-24T20:07:16.082Z,17.40
2018-05-24T20:10:13.967Z,17.30
2018-05-24T20:13:12.006Z,17.10
2018-05-24T20:16:09.116Z,17.10
2018-05-24T20:19:07.118Z,17.00
2018-05-24T20:22:05.031Z,16.90
2018-05-24T20:25:02.631Z,16.80
2018-05-24T20:28:00.623Z,16.80
2018-05-24T20:30:59.478Z,16.70
2018-05-24T20:33:57.486Z,16.60
2018-05-24T20:36:54.448Z,16.50
2018-05-24T20:39:52.350Z,16.40
2018-05-24T20:42:50.189Z,16.30
2018-05-24T20:45:47.543Z,16.30
2018-05-24T20:48:45.432Z,16.20
2018-05-24T20:51:43.097Z,16.00
2018-05-24T20:54:40.079Z,16.00
2018-05-24T20:57:37.843Z,15.90
2018-05-24T21:00:35.820Z,15.90
2018-05-24T21:03:33.654Z,15.80
2018-05-24T21:06:31.565Z,15.80
2018-05-24T21:09:30.358Z,15.70
2018-05-24T21:12:28.038Z,15.70
2018-05-24T21:15:25.814Z,15.60
2018-05-24T21:18:23.787Z,15.60
2018-05-24T21:21:21.395Z,15.50
2018-05-24T21:24:20.033Z,15.50
2018-05-24T21:27:17.095Z,15.40
2018-05-24T21:30:15.155Z,15.50
2018-05-24T21:33:13.141Z,15.50
2018-05-24T21:36:11.232Z,15.40
2018-05-24T21:39:09.027Z,15.30
2018-05-24T21:42:06.907Z,15.30
2018-05-24T21:45:04.875Z,15.30
2018-05-24T21:48:02.704Z,15.30
2018-05-24T21:50:59.954Z,15.20
2018-05-24T21:53:57.595Z,15.20
2018-05-24T21:56:55.662Z,15.10
2018-05-24T21:59:53.563Z,15.10
2018-05-24T22:02:51.426Z,15.10
2018-05-24T22:05:48.503Z,15.00
2018-05-24T22:08:46.451Z,15.10
2018-05-24T22:11:43.618Z,14.90
2018-05-24T22:14:41.443Z,14.90
2018-05-24T22:17:38.633Z,14.80
2018-05-24T22:20:36.667Z,14.80
2018-05-24T22:23:34.609Z,14.80
2018-05-24T22:26:32.633Z,14.90
2018-05-24T22:29:30.747Z,14.80
2018-05-24T22:32:28.725Z,14.70
2018-05-24T22:35:26.496Z,14.70
2018-05-24T22:38:24.327Z,14.60
2018-05-24T22:41:22.346Z,14.50
2018-05-24T22:44:19.267Z,14.50
2018-05-24T22:47:16.307Z,14.50
2018-05-24T22:50:13.562Z,14.50
2018-05-24T22:53:12.170Z,14.40
2018-05-24T22:56:09.572Z,14.40
2018-05-24T22:59:07.486Z,14.40
2018-05-24T23:02:05.485Z,14.40
2018-05-24T23:05:02.450Z,14.40
2018-05-24T23:08:00.186Z,14.30
2018-05-24T23:10:58.112Z,14.30
2018-05-24T23:13:55.075Z,14.30
2018-05-24T23:16:52.210Z,14.30
2018-05-24T23:19:51.040Z,14.20
2018-05-24T23:22:54.145Z,14.30
2018-05-24T23:28:55.593Z,14.30
2018-05-24T23:31:53.712Z,14.20
2018-05-24T23:34:51.638Z,14.20
2018-05-24T23:37:49.409Z,14.20
2018-05-24T23:40:47.333Z,14.20
2018-05-24T23:43:44.429Z,14.10
2018-05-24T23:46:42.441Z,14.10
2018-05-24T23:49:40.283Z,14.10
2018-05-24T23:52:37.880Z,14.00
2018-05-24T23:55:35.165Z,14.00
2018-05-24T23:58:32.971Z,13.90
